createdAt,value
2018-07-21T00:02:23.360Z,74.42
2018-07-21T00:05:27.584Z,74.28
2018-07-21T00:08:31.780Z,74.76
2018-07-21T00:11:36.026Z,74.72
2018-07-21T00:14:40.213Z,75.43
2018-07-21T00:17:44.456Z,75.31
2018-07-21T00:20:48.709Z,75.71
2018-07-21T00:23:52.916Z,75.51
2018-07-21T00:26:57.132Z,75.16
2018-07-21T00:30:01.342Z,75.88
2018-07-21T00:33:05.585Z,76.21
2018-07-21T00:36:09.809Z,75.83
2018-07-21T00:39:15.480Z,76.65
2018-07-21T00:42:19.745Z,76.57
2018-07-21T00:45:24.033Z,77.44
2018-07-21T00:48:28.248Z,77.02
2018-07-21T00:51:32.440Z,77.02
2018-07-21T00:54:36.668Z,77.87
2018-07-21T00:57:40.873Z,77.11
2018-07-21T01:00:45.075Z,77.82
2018-07-21T01:03:49.280Z,77.57
2018-07-21T01:06:53.480Z,78.26
2018-07-21T01:09:57.702Z,77.83
2018-07-21T01:13:01.914Z,77.87
2018-07-21T01:16:06.437Z,78.31
2018-07-21T01:19:10.653Z,78.22
2018-07-21T01:22:14.933Z,78.19
2018-07-21T01:25:19.188Z,78.31
2018-07-21T01:28:23.405Z,78.42
2018-07-21T01:31:27.604Z,78.88
2018-07-21T01:34:31.797Z,78.42
2018-07-21T01:37:36.001Z,78.61
2018-07-21T01:40:40.198Z,79.32
2018-07-21T01:43:44.404Z,79.06
2018-07-21T01:46:48.606Z,78.78
2018-07-21T01:49:52.819Z,79.89
2018-07-21T01:52:57.061Z,79.77
2018-07-21T01:56:01.260Z,79.16
2018-07-21T01:59:05.477Z,79.24
2018-07-21T02:02:09.717Z,80.18
2018-07-21T02:05:14.072Z,80.25
2018-07-21T02:08:18.277Z,80.05
2018-07-21T02:11:22.496Z,79.77
2018-07-21T02:14:26.693Z,80.74
2018-07-21T02:17:30.893Z,80.87
2018-07-21T02:20:35.089Z,80.78
2018-07-21T02:23:39.359Z,81.11
2018-07-21T02:26:43.566Z,81.19
2018-07-21T02:29:47.788Z,81.31
2018-07-21T02:32:52.007Z,81.42
2018-07-21T02:35:56.067Z,81.24
2018-07-21T02:39:00.293Z,81.24
2018-07-21T02:42:04.506Z,81.90
2018-07-21T02:45:08.736Z,81.23
2018-07-21T02:48:12.934Z,81.37
2018-07-21T02:51:17.149Z,81.60
2018-07-21T02:54:21.558Z,81.58
2018-07-21T02:57:25.747Z,81.12
2018-07-21T03:00:29.961Z,81.37
2018-07-21T03:03:34.189Z,81.63
2018-07-21T03:06:38.385Z,81.46
2018-07-21T03:09:42.590Z,80.64
2018-07-21T03:12:46.804Z,81.04
2018-07-21T03:15:51.005Z,81.65
2018-07-21T03:18:55.234Z,81.50
2018-07-21T03:21:59.409Z,81.87
2018-07-21T03:25:03.637Z,81.56
2018-07-21T03:28:07.872Z,81.87
2018-07-21T03:31:12.074Z,82.00
2018-07-21T03:34:16.297Z,82.37
2018-07-21T03:37:20.489Z,82.20
2018-07-21T03:40:24.760Z,82.51
2018-07-21T03:43:28.936Z,83.75
2018-07-21T03:46:33.148Z,83.40
2018-07-21T03:49:37.336Z,83.82
2018-07-21T03:52:41.360Z,83.75
2018-07-21T03:55:45.338Z,83.57
2018-07-21T03:58:49.561Z,84.20
2018-07-21T04:01:53.753Z,83.89
2018-07-21T04:04:57.973Z,83.09
2018-07-21T04:08:02.181Z,83.75
2018-07-21T04:11:06.529Z,83.94
2018-07-21T04:14:10.956Z,83.60
2018-07-21T04:17:23.237Z,84.07
2018-07-21T04:20:27.424Z,83.59
2018-07-21T04:23:31.625Z,83.33
2018-07-21T04:26:35.906Z,84.23
2018-07-21T04:29:40.104Z,84.15
2018-07-21T04:32:44.127Z,83.78
2018-07-21T04:35:51.909Z,83.69
2018-07-21T04:38:56.125Z,83.69
2018-07-21T04:42:00.328Z,84.46
2018-07-21T04:45:04.520Z,84.66
2018-07-21T04:48:08.730Z,84.46
2018-07-21T04:51:12.961Z,83.76
2018-07-21T04:54:17.177Z,84.51
2018-07-21T04:57:21.397Z,84.13
2018-07-21T05:00:25.613Z,84.42
2018-07-21T05:03:29.829Z,83.78
2018-07-21T05:06:34.060Z,83.53
2018-07-21T05:09:38.274Z,82.99
2018-07-21T05:12:42.500Z,82.33
2018-07-21T05:15:46.711Z,82.27
2018-07-21T05:18:50.945Z,81.68
2018-07-21T05:21:55.163Z,82.64
2018-07-21T05:24:59.417Z,82.56
2018-07-21T05:28:03.650Z,81.72
2018-07-21T05:31:07.925Z,81.05
2018-07-21T05:34:12.174Z,80.97
2018-07-21T05:37:16.380Z,79.77
2018-07-21T05:40:20.612Z,80.01
2018-07-21T05:43:24.884Z,79.92
2018-07-21T05:46:29.106Z,78.86
2018-07-21T05:49:33.473Z,78.32
2018-07-21T05:52:37.737Z,78.15
2018-07-21T05:55:41.953Z,78.34
2018-07-21T05:58:46.177Z,77.59
2018-07-21T06:01:50.434Z,76.80
2018-07-21T06:04:54.657Z,76.85
2018-07-21T06:07:58.852Z,76.84
2018-07-21T06:11:03.105Z,75.52
2018-07-21T06:14:07.473Z,74.22
2018-07-21T06:17:12.125Z,74.47
2018-07-21T06:20:16.361Z,75.00
2018-07-21T06:23:20.595Z,73.62
2018-07-21T06:26:24.809Z,73.56
2018-07-21T06:29:29.054Z,73.52
2018-07-21T06:32:33.252Z,73.02
2018-07-21T06:35:37.537Z,72.06
2018-07-21T06:38:41.762Z,71.70
2018-07-21T06:41:45.992Z,71.61
2018-07-21T06:44:50.203Z,71.37
2018-07-21T06:47:54.453Z,70.90
2018-07-21T06:50:58.755Z,70.48
2018-07-21T06:54:03.044Z,70.23
2018-07-21T06:57:07.317Z,70.20
2018-07-21T07:00:11.313Z,69.12
2018-07-21T07:03:15.521Z,68.09
2018-07-21T07:06:19.783Z,66.45
2018-07-21T07:09:24.031Z,67.19
2018-07-21T07:12:28.270Z,65.02
2018-07-21T07:15:32.486Z,63.82
2018-07-21T07:18:36.778Z,62.58
2018-07-21T07:21:41.085Z,62.03
2018-07-21T07:24:45.410Z,62.12
2018-07-21T07:27:49.612Z,62.10
2018-07-21T07:30:53.821Z,60.68
2018-07-21T07:33:58.044Z,61.00
2018-07-21T07:37:02.272Z,60.76
2018-07-21T07:40:06.536Z,59.87
2018-07-21T07:43:10.789Z,59.08
2018-07-21T07:46:14.993Z,58.72
2018-07-21T07:49:19.223Z,56.85
2018-07-21T07:52:23.429Z,57.16
2018-07-21T07:55:32.097Z,55.85
2018-07-21T07:58:36.369Z,55.76
2018-07-21T08:01:40.581Z,55.23
2018-07-21T08:04:44.809Z,55.20
2018-07-21T08:07:48.992Z,53.60
2018-07-21T08:10:53.204Z,53.71
2018-07-21T08:13:57.398Z,53.48
2018-07-21T08:17:01.624Z,53.26
2018-07-21T08:20:05.880Z,52.75
2018-07-21T08:23:10.124Z,49.80
2018-07-21T08:26:14.319Z,50.77
2018-07-21T08:29:18.557Z,50.23
2018-07-21T08:32:22.780Z,50.15
2018-07-21T08:35:26.981Z,50.02
2018-07-21T08:38:31.214Z,48.10
2018-07-21T08:41:35.513Z,47.65
2018-07-21T08:44:39.708Z,47.03
2018-07-21T08:47:43.975Z,46.18
2018-07-21T08:50:48.326Z,44.40
2018-07-21T08:53:52.569Z,42.34
2018-07-21T08:56:56.844Z,42.16
2018-07-21T09:00:01.110Z,42.71
2018-07-21T09:03:05.409Z,41.03
2018-07-21T09:06:09.624Z,41.79
2018-07-21T09:09:13.856Z,41.81
2018-07-21T09:12:18.074Z,42.42
2018-07-21T09:15:22.380Z,39.52
2018-07-21T09:18:26.640Z,40.53
2018-07-21T09:21:31.028Z,38.82
2018-07-21T09:24:35.276Z,38.43
2018-07-21T09:27:39.520Z,39.27
2018-07-21T09:30:43.841Z,39.64
2018-07-21T09:33:48.104Z,39.97
2018-07-21T09:36:52.426Z,40.04
2018-07-21T09:39:56.736Z,39.30
2018-07-21T09:43:01.017Z,38.75
2018-07-21T09:46:05.904Z,39.98
2018-07-21T09:49:10.157Z,39.59
2018-07-21T09:52:14.317Z,39.73
2018-07-21T09:55:18.540Z,38.85
2018-07-21T09:58:22.738Z,38.45
2018-07-21T10:01:26.947Z,38.29
2018-07-21T10:04:31.171Z,38.16
2018-07-21T10:07:35.369Z,37.89
2018-07-21T10:10:39.608Z,38.31
2018-07-21T10:13:43.835Z,38.66
2018-07-21T10:16:48.062Z,37.93
2018-07-21T10:19:52.409Z,37.64
2018-07-21T10:22:56.644Z,38.79
2018-07-21T10:26:06.217Z,38.99
2018-07-21T10:29:13.396Z,38.27
2018-07-21T10:32:17.618Z,37.55
2018-07-21T10:35:21.856Z,36.89
2018-07-21T10:38:26.073Z,37.63
2018-07-21T10:41:30.314Z,36.65
2018-07-21T10:44:34.609Z,35.99
2018-07-21T10:47:38.772Z,36.00
2018-07-21T10:50:42.964Z,36.89
2018-07-21T10:53:47.173Z,35.75
2018-07-21T10:56:51.384Z,35.65
2018-07-21T10:59:55.597Z,36.60
2018-07-21T11:02:59.808Z,36.12
2018-07-21T11:06:03.805Z,35.88
2018-07-21T11:09:10.413Z,35.80
2018-07-21T11:12:14.652Z,35.13
2018-07-21T11:15:18.928Z,33.93
2018-07-21T11:18:23.173Z,35.33
2018-07-21T11:21:27.411Z,35.58
2018-07-21T11:24:31.698Z,35.63
2018-07-21T11:27:36.163Z,34.79
2018-07-21T11:30:40.369Z,35.77
2018-07-21T11:33:44.614Z,35.58
2018-07-21T11:36:48.858Z,35.41
2018-07-21T11:39:53.524Z,36.05
2018-07-21T11:42:57.718Z,36.81
2018-07-21T11:46:01.947Z,35.11
2018-07-21T11:49:06.244Z,36.63
2018-07-21T11:52:10.492Z,36.29
2018-07-21T11:55:14.725Z,36.00
2018-07-21T11:58:19.237Z,34.80
2018-07-21T12:01:23.497Z,35.84
2018-07-21T12:04:28.589Z,36.07
2018-07-21T12:07:32.837Z,35.67
2018-07-21T12:10:37.279Z,34.92
2018-07-21T12:13:41.590Z,34.00
2018-07-21T12:16:45.817Z,34.13
2018-07-21T12:19:50.112Z,33.30
2018-07-21T12:22:56.188Z,34.36
2018-07-21T12:26:00.536Z,34.53
2018-07-21T12:29:05.652Z,35.70
2018-07-21T12:32:10.028Z,35.44
2018-07-21T12:35:14.389Z,35.24
2018-07-21T12:38:18.921Z,34.74
2018-07-21T12:41:23.322Z,34.49
2018-07-21T12:44:27.592Z,34.66
2018-07-21T12:47:31.835Z,35.61
2018-07-21T12:50:36.114Z,35.72
2018-07-21T12:53:40.393Z,34.48
2018-07-21T12:56:44.621Z,34.79
2018-07-21T12:59:48.915Z,35.21
2018-07-21T13:02:53.153Z,35.46
2018-07-21T13:05:57.500Z,34.03
2018-07-21T13:09:02.198Z,33.88
2018-07-21T13:12:06.696Z,33.07
2018-07-21T13:15:10.933Z,34.49
2018-07-21T13:18:15.246Z,34.58
2018-07-21T13:21:19.520Z,35.53
2018-07-21T13:24:23.749Z,33.69
2018-07-21T13:27:28.042Z,33.95
2018-07-21T13:30:32.305Z,33.24
2018-07-21T13:33:36.549Z,35.30
2018-07-21T13:36:40.842Z,34.41
2018-07-21T13:39:45.085Z,34.72
2018-07-21T13:42:49.337Z,34.33
2018-07-21T13:45:53.604Z,34.17
2018-07-21T13:48:57.851Z,34.71
2018-07-21T13:52:02.114Z,34.46
2018-07-21T13:55:06.870Z,35.40
2018-07-21T13:58:11.082Z,35.49
2018-07-21T14:01:15.353Z,34.76
2018-07-21T14:04:19.621Z,34.28
2018-07-21T14:07:23.889Z,33.43
2018-07-21T14:10:28.257Z,33.87
2018-07-21T14:13:32.504Z,35.65
2018-07-21T14:16:36.766Z,34.34
2018-07-21T14:19:41.000Z,34.31
2018-07-21T14:22:45.449Z,34.84
2018-07-21T14:25:49.808Z,34.38
2018-07-21T14:28:54.054Z,33.44
2018-07-21T14:31:58.337Z,33.03
2018-07-21T14:35:02.575Z,35.44
2018-07-21T14:38:07.009Z,34.02
2018-07-21T14:41:11.032Z,33.89
2018-07-21T14:44:15.298Z,34.65
2018-07-21T14:47:19.509Z,33.29
2018-07-21T14:50:23.723Z,34.51
2018-07-21T14:53:27.915Z,32.42
2018-07-21T14:56:32.176Z,33.47
2018-07-21T14:59:36.427Z,32.54
2018-07-21T15:02:40.723Z,33.71
2018-07-21T15:05:45.001Z,32.43
2018-07-21T15:08:49.268Z,33.71
2018-07-21T15:11:53.574Z,33.29
2018-07-21T15:14:57.947Z,32.83
2018-07-21T15:18:02.203Z,32.68
2018-07-21T15:21:06.482Z,33.24
2018-07-21T15:24:10.780Z,33.43
2018-07-21T15:27:15.058Z,33.80
2018-07-21T15:30:19.304Z,32.45
2018-07-21T15:33:23.561Z,33.01
2018-07-21T15:36:27.800Z,33.81
2018-07-21T15:39:32.028Z,34.15
2018-07-21T15:42:36.269Z,34.60
2018-07-21T15:45:40.513Z,34.61
2018-07-21T15:48:44.780Z,34.85
2018-07-21T15:51:49.033Z,35.66
2018-07-21T15:54:53.271Z,36.07
2018-07-21T15:57:57.540Z,35.74
2018-07-21T16:01:01.784Z,36.81
2018-07-21T16:04:06.069Z,37.24
2018-07-21T16:07:10.296Z,37.56
2018-07-21T16:10:14.613Z,37.20
2018-07-21T16:13:18.905Z,36.81
2018-07-21T16:16:23.162Z,36.50
2018-07-21T16:19:27.432Z,36.51
2018-07-21T16:22:31.684Z,37.83
2018-07-21T16:25:35.969Z,37.51
2018-07-21T16:28:40.215Z,36.83
2018-07-21T16:31:44.472Z,37.26
2018-07-21T16:34:48.774Z,37.36
2018-07-21T16:37:52.964Z,37.67
2018-07-21T16:40:57.216Z,37.18
2018-07-21T16:44:01.490Z,37.57
2018-07-21T16:47:06.294Z,38.22
2018-07-21T16:50:10.544Z,37.11
2018-07-21T16:53:14.793Z,37.37
2018-07-21T16:56:19.044Z,38.28
2018-07-21T16:59:23.321Z,39.06
2018-07-21T17:02:27.577Z,37.66
2018-07-21T17:05:31.816Z,38.77
2018-07-21T17:08:36.067Z,38.82
2018-07-21T17:11:40.341Z,38.24
2018-07-21T17:14:44.586Z,38.64
2018-07-21T17:17:48.847Z,39.14
2018-07-21T17:20:53.119Z,39.01
2018-07-21T17:23:57.370Z,39.08
2018-07-21T17:27:01.610Z,38.92
2018-07-21T17:30:05.896Z,39.55
2018-07-21T17:33:10.142Z,38.56
2018-07-21T17:36:14.413Z,39.40
2018-07-21T17:39:18.437Z,38.95
2018-07-21T17:42:22.672Z,38.30
2018-07-21T17:45:26.924Z,38.96
2018-07-21T17:48:31.161Z,38.50
2018-07-21T17:51:35.956Z,38.14
2018-07-21T17:54:40.199Z,37.90
2018-07-21T17:57:44.480Z,37.65
2018-07-21T18:00:48.715Z,37.81
2018-07-21T18:03:53.033Z,37.96
2018-07-21T18:06:57.332Z,38.12
2018-07-21T18:10:01.585Z,38.20
2018-07-21T18:13:05.852Z,38.07
2018-07-21T18:16:10.166Z,38.03
2018-07-21T18:19:14.368Z,37.54
2018-07-21T18:22:18.641Z,38.02
2018-07-21T18:25:22.959Z,37.54
2018-07-21T18:28:27.162Z,38.12
2018-07-21T18:31:31.407Z,37.48
2018-07-21T18:34:35.661Z,37.41
2018-07-21T18:37:39.949Z,37.65
2018-07-21T18:40:44.192Z,38.31
2018-07-21T18:43:48.451Z,37.63
2018-07-21T18:46:52.677Z,37.35
2018-07-21T18:49:56.947Z,38.30
2018-07-21T18:53:01.207Z,37.16
2018-07-21T18:56:05.573Z,37.74
2018-07-21T18:59:09.808Z,37.24
2018-07-21T19:02:14.058Z,36.81
2018-07-21T19:05:18.273Z,37.56
2018-07-21T19:08:22.521Z,37.26
2018-07-21T19:11:26.760Z,37.45
2018-07-21T19:14:31.015Z,37.55
2018-07-21T19:17:35.319Z,37.79
2018-07-21T19:20:44.877Z,38.62
2018-07-21T19:23:50.180Z,38.21
2018-07-21T19:26:59.665Z,39.03
2018-07-21T19:30:03.973Z,38.70
2018-07-21T19:33:08.261Z,37.86
2018-07-21T19:36:12.484Z,38.56
2018-07-21T19:39:16.716Z,38.42
2018-07-21T19:42:20.948Z,38.21
2018-07-21T19:45:25.201Z,37.96
2018-07-21T19:48:29.452Z,38.53
2018-07-21T19:51:33.693Z,38.70
2018-07-21T19:54:37.936Z,37.96
2018-07-21T19:57:42.201Z,38.30
2018-07-21T20:00:46.438Z,37.92
2018-07-21T20:03:50.673Z,38.71
2018-07-21T20:06:54.933Z,38.13
2018-07-21T20:09:59.254Z,38.14
2018-07-21T20:13:03.553Z,38.66
2018-07-21T20:16:07.803Z,38.15
2018-07-21T20:19:12.034Z,38.24
2018-07-21T20:22:16.377Z,38.93
2018-07-21T20:25:21.798Z,38.96
2018-07-21T20:28:26.056Z,39.34
2018-07-21T20:31:30.353Z,38.76
2018-07-21T20:34:36.008Z,39.65
2018-07-21T20:37:40.373Z,39.74
2018-07-21T20:40:44.662Z,39.10
2018-07-21T20:43:49.003Z,39.98
2018-07-21T20:46:53.254Z,40.29
2018-07-21T20:49:57.502Z,39.62
2018-07-21T20:53:01.744Z,40.30
2018-07-21T20:56:06.025Z,39.38
2018-07-21T20:59:10.324Z,40.39
2018-07-21T21:02:14.722Z,40.31
2018-07-21T21:05:18.980Z,40.10
2018-07-21T21:08:23.318Z,40.06
2018-07-21T21:11:27.558Z,40.84
2018-07-21T21:14:31.804Z,41.43
2018-07-21T21:17:36.026Z,40.69
2018-07-21T21:20:40.288Z,40.52
2018-07-21T21:23:45.153Z,41.44
2018-07-21T21:26:49.449Z,41.46
2018-07-21T21:29:53.832Z,41.76
2018-07-21T21:32:58.120Z,40.90
2018-07-21T21:36:02.369Z,42.76
2018-07-21T21:39:10.649Z,43.53
2018-07-21T21:42:14.965Z,43.53
2018-07-21T21:45:19.158Z,43.18
2018-07-21T21:48:23.443Z,43.96
2018-07-21T21:51:27.664Z,42.97
2018-07-21T21:54:31.942Z,43.31
2018-07-21T21:57:36.205Z,43.42
2018-07-21T22:01:15.657Z,42.54
2018-07-21T22:04:19.901Z,42.73
2018-07-21T22:07:24.141Z,43.56
2018-07-21T22:10:28.397Z,43.06
2018-07-21T22:13:32.680Z,43.78
2018-07-21T22:16:36.932Z,43.69
2018-07-21T22:19:41.201Z,43.57
2018-07-21T22:22:46.084Z,44.13
2018-07-21T22:25:50.364Z,43.50
2018-07-21T22:28:54.602Z,44.68
2018-07-21T22:31:58.839Z,44.99
2018-07-21T22:35:03.085Z,44.13
2018-07-21T22:38:07.312Z,44.09
2018-07-21T22:41:11.572Z,44.11
2018-07-21T22:44:15.836Z,44.57
2018-07-21T22:47:20.077Z,44.86
2018-07-21T22:50:24.390Z,44.19
2018-07-21T22:53:28.640Z,44.12
2018-07-21T22:56:32.877Z,44.75
2018-07-21T22:59:37.137Z,44.92
2018-07-21T23:02:42.154Z,44.85
2018-07-21T23:05:46.422Z,44.88
2018-07-21T23:08:50.419Z,44.13
2018-07-21T23:11:54.648Z,43.83
2018-07-21T23:14:58.888Z,44.04
2018-07-21T23:18:03.174Z,44.53
2018-07-21T23:21:07.412Z,44.82
2018-07-21T23:24:11.652Z,44.65
2018-07-21T23:27:15.906Z,45.24
2018-07-21T23:30:20.967Z,45.48
2018-07-21T23:33:25.199Z,45.05
2018-07-21T23:36:29.447Z,45.47
2018-07-21T23:39:33.704Z,45.59
2018-07-21T23:42:37.981Z,45.70
2018-07-21T23:45:42.233Z,46.92
2018-07-21T23:48:46.505Z,47.39
2018-07-21T23:51:50.782Z,47.55
2018-07-21T23:54:55.033Z,47.92
2018-07-21T23:57:59.245Z,48.49
